Time;durP1;ratioP1;P1;durP2;ratioP2;P2;SDS_P1;SDS_P2;PMS_P1;PMS_P2;Temp;Humidity;BMP_temperature;BMP_pressure;BME280_temperature;BME280_humidity;BME280_pressure;Samples;Min_cycle;Max_cycle;Signal;HPM_P1;HPM_P2
2023/05/25 00:01:02;;;;;;;;;;;;;;;10.51;81.67;102519.31;5062575;28;1538;-79
2023/05/25 00:03:29;;;;;;;;;;;;;;;10.47;81.30;102516.94;5069099;28;1549;-78
2023/05/25 00:05:55;;;;;;;;;;;;;;;10.41;80.74;102518.13;5043084;28;1974;-79
2023/05/25 00:08:20;;;;;;;;;;;;;;;10.35;80.96;102513.25;5044785;28;1216;-79
2023/05/25 00:10:45;;;;;;;;;;;;;;;10.31;81.23;102514.34;5062771;28;1223;-78
2023/05/25 00:13:10;;;;;;;;;;;;;;;10.28;81.66;102517.09;5066495;28;1100;-78
2023/05/25 00:15:35;;;;;;;;;;;;;;;10.21;83.24;102519.16;5057500;28;1090;-78
2023/05/25 00:18:01;;;;;;;;;;;;;;;10.14;83.68;102516.94;5063815;28;1225;-78
2023/05/25 00:20:27;;;;;;;;;;;;;;;10.11;81.75;102515.38;5068408;28;1184;-78
2023/05/25 00:22:54;;;;;;;;;;;;;;;10.08;81.94;102518.13;5069556;28;1152;-79
2023/05/25 00:25:20;;;;;;;;;;;;;;;10.02;83.90;102521.88;5069407;28;1890;-78
2023/05/25 00:27:45;;;;;;;;;;;;;;;9.99;82.62;102529.81;5056994;28;1228;-78
2023/05/25 00:30:10;;;;;;;;;;;;;;;9.98;82.84;102522.97;5055578;28;1363;-78
2023/05/25 00:32:36;;;;;;;;;;;;;;;9.96;82.72;102522.19;5071203;28;1342;-78
2023/05/25 00:35:01;;;;;;;;;;;;;;;9.93;83.80;102522.34;5060184;28;1157;-78
2023/05/25 00:37:26;;;;;;;;;;;;;;;9.86;84.01;102526.16;5066831;28;1129;-79
2023/05/25 00:39:51;;;;;;;;;;;;;;;9.87;82.58;102527.84;5054092;28;1661;-79
2023/05/25 00:42:17;;;;;;;;;;;;;;;9.85;82.63;102525.31;5043584;28;1618;-78
2023/05/25 00:44:42;;;;;;;;;;;;;;;9.83;83.26;102531.50;5064921;28;1898;-78
2023/05/25 00:47:07;;;;;;;;;;;;;;;9.83;82.79;102526.34;5067536;28;1674;-78
2023/05/25 00:49:34;;;;;;;;;;;;;;;9.83;82.90;102528.91;5067026;28;1587;-78
2023/05/25 00:51:59;;;;;;;;;;;;;;;9.82;83.14;102524.66;5061906;28;1013;-77
2023/05/25 00:54:24;;;;;;;;;;;;;;;9.83;82.64;102521.16;5062394;28;1667;-78
2023/05/25 00:56:51;;;;;;;;;;;;;;;9.83;82.98;102515.97;5068870;28;1092;-77
2023/05/25 00:59:21;;;;;;;;;;;;;;;9.81;82.96;102517.81;5047704;28;1715;-78
2023/05/25 01:01:48;;;;;;;;;;;;;;;9.79;82.96;102519.63;5066584;28;1346;-79
2023/05/25 01:04:14;;;;;;;;;;;;;;;9.81;83.17;102525.59;5061025;28;1921;-78
2023/05/25 01:06:42;;;;;;;;;;;;;;;9.82;83.17;102525.50;5065463;28;1634;-78
2023/05/25 01:09:09;;;;;;;;;;;;;;;9.82;82.92;102522.06;5038098;28;1306;-78
2023/05/25 01:11:35;;;;;;;;;;;;;;;9.77;82.72;102526.66;5061956;28;1312;-78
2023/05/25 01:14:01;;;;;;;;;;;;;;;9.74;82.88;102531.97;5065131;28;1287;-78
2023/05/25 01:16:27;;;;;;;;;;;;;;;9.69;83.57;102526.19;5066304;28;1514;-78
2023/05/25 01:18:52;;;;;;;;;;;;;;;9.65;83.56;102527.28;5067670;28;1200;-77
2023/05/25 01:21:18;;;;;;;;;;;;;;;9.57;83.56;102536.25;5042196;28;1306;-77
2023/05/25 01:23:55;;;;;;;;;;;;;;;9.50;84.67;102539.22;5050822;28;1335;-78
2023/05/25 01:26:22;;;;;;;;;;;;;;;9.44;84.53;102544.72;5063556;28;1898;-77
2023/05/25 01:28:50;;;;;;;;;;;;;;;9.39;84.42;102542.34;5047537;28;1314;-78
2023/05/25 01:31:16;;;;;;;;;;;;;;;9.36;84.32;102545.09;5049388;28;1302;-77
2023/05/25 01:33:44;;;;;;;;;;;;;;;9.36;83.64;102541.69;5059752;28;1042;-77
2023/05/25 01:36:09;;;;;;;;;;;;;;;9.37;84.01;102541.59;5065245;28;1036;-78
2023/05/25 01:38:35;;;;;;;;;;;;;;;9.40;83.93;102544.00;5063923;28;1267;-78
2023/05/25 01:41:01;;;;;;;;;;;;;;;9.37;84.86;102543.34;5059616;28;1239;-77
2023/05/25 01:43:26;;;;;;;;;;;;;;;9.35;84.27;102551.19;5058311;28;1207;-78
2023/05/25 01:45:56;;;;;;;;;;;;;;;9.31;84.72;102545.31;5045555;28;1941;-78
2023/05/25 01:48:21;;;;;;;;;;;;;;;9.30;84.40;102548.81;5059102;28;1180;-78
2023/05/25 01:50:56;;;;;;;;;;;;;;;9.30;83.91;102550.56;5066169;28;1514;-78
2023/05/25 01:53:25;;;;;;;;;;;;;;;9.27;85.00;102558.47;5058353;28;1173;-78
2023/05/25 01:55:56;;;;;;;;;;;;;;;9.21;84.60;102556.19;5067615;28;1268;-77
2023/05/25 01:58:22;;;;;;;;;;;;;;;9.17;84.69;102552.91;5067734;28;1161;-77
2023/05/25 02:00:49;;;;;;;;;;;;;;;9.17;85.01;102552.06;5051514;28;1491;-77
2023/05/25 02:03:15;;;;;;;;;;;;;;;9.15;85.09;102543.53;5049771;28;1301;-78
2023/05/25 02:05:40;;;;;;;;;;;;;;;9.12;85.03;102538.50;5073435;28;1898;-77
2023/05/25 02:08:06;;;;;;;;;;;;;;;9.09;84.91;102541.25;5073034;28;1208;-77
2023/05/25 02:10:31;;;;;;;;;;;;;;;9.10;85.67;102540.34;5071147;28;1584;-78
2023/05/25 02:12:56;;;;;;;;;;;;;;;9.08;85.07;102542.16;5066323;28;1664;-77
2023/05/25 02:15:21;;;;;;;;;;;;;;;9.04;86.16;102555.25;5068567;28;1245;-77
2023/05/25 02:17:47;;;;;;;;;;;;;;;9.04;85.45;102557.81;5052344;28;1136;-77
2023/05/25 02:20:12;;;;;;;;;;;;;;;9.02;86.04;102564.84;5066874;28;1034;-77
2023/05/25 02:22:37;;;;;;;;;;;;;;;9.00;87.00;102564.09;5061464;28;1164;-78
2023/05/25 02:25:03;;;;;;;;;;;;;;;8.93;86.83;102557.50;5071247;28;1973;-78
2023/05/25 02:27:28;;;;;;;;;;;;;;;8.88;86.84;102556.88;5061131;28;1514;-77
2023/05/25 02:29:53;;;;;;;;;;;;;;;8.82;87.16;102557.16;5061289;28;1625;-77
2023/05/25 02:32:18;;;;;;;;;;;;;;;8.82;86.73;102556.31;5070545;28;1135;-77
2023/05/25 02:34:45;;;;;;;;;;;;;;;8.81;86.83;102550.31;5052944;28;1232;-77
2023/05/25 02:37:10;;;;;;;;;;;;;;;8.78;87.71;102550.47;5070222;28;1131;-78
2023/05/25 02:39:36;;;;;;;;;;;;;;;8.77;87.42;102543.59;5069190;28;1384;-78
2023/05/25 02:42:01;;;;;;;;;;;;;;;8.76;87.69;102547.94;5061891;28;1236;-77
2023/05/25 02:44:26;;;;;;;;;;;;;;;8.72;88.78;102545.56;5064493;28;1914;-77
2023/05/25 02:46:51;;;;;;;;;;;;;;;8.68;88.15;102544.88;5062700;28;1260;-78
2023/05/25 02:49:16;;;;;;;;;;;;;;;8.67;87.32;102547.53;5041784;28;1201;-78
2023/05/25 02:51:42;;;;;;;;;;;;;;;8.68;88.81;102544.03;5069396;28;1081;-77
2023/05/25 02:54:07;;;;;;;;;;;;;;;8.64;88.61;102555.41;5047255;28;1267;-77
2023/05/25 02:56:32;;;;;;;;;;;;;;;8.61;89.11;102553.81;5052289;28;1216;-77
2023/05/25 02:58:57;;;;;;;;;;;;;;;8.59;87.94;102554.78;5050246;28;1316;-77
2023/05/25 03:01:24;;;;;;;;;;;;;;;8.60;88.52;102556.47;5043921;28;1205;-78
2023/05/25 03:03:51;;;;;;;;;;;;;;;8.60;88.54;102556.47;5060127;28;1280;-77
2023/05/25 03:06:16;;;;;;;;;;;;;;;8.62;88.03;102562.41;5067677;28;1976;-78
2023/05/25 03:08:42;;;;;;;;;;;;;;;8.64;88.33;102560.59;5063950;28;1259;-78
2023/05/25 03:11:07;;;;;;;;;;;;;;;8.61;88.39;102568.50;5057624;28;1243;-78
2023/05/25 03:13:32;;;;;;;;;;;;;;;8.58;89.69;102578.97;5064981;28;1323;-78
2023/05/25 03:15:57;;;;;;;;;;;;;;;8.51;88.89;102574.09;5066870;28;1210;-78
2023/05/25 03:18:23;;;;;;;;;;;;;;;8.49;88.85;102581.09;5046901;28;1239;-78
2023/05/25 03:20:48;;;;;;;;;;;;;;;8.48;90.15;102587.13;5065505;28;1253;-77
2023/05/25 03:23:13;;;;;;;;;;;;;;;8.46;89.82;102590.72;5058904;28;1242;-78
2023/05/25 03:25:38;;;;;;;;;;;;;;;8.43;89.44;102586.53;5069215;28;1966;-78
2023/05/25 03:28:03;;;;;;;;;;;;;;;8.45;89.36;102579.53;5062145;28;1276;-78
2023/05/25 03:30:30;;;;;;;;;;;;;;;8.44;89.73;102580.44;5063361;28;1435;-78
2023/05/25 03:32:55;;;;;;;;;;;;;;;8.43;90.46;102590.84;5067943;28;1347;-77
2023/05/25 03:35:20;;;;;;;;;;;;;;;8.41;89.40;102588.31;5069780;28;1506;-79
2023/05/25 03:37:46;;;;;;;;;;;;;;;8.43;90.46;102591.69;5058881;28;1217;-77
2023/05/25 03:40:11;;;;;;;;;;;;;;;8.42;90.41;102584.81;5062887;28;1193;-77
2023/05/25 03:42:36;;;;;;;;;;;;;;;8.43;89.25;102585.66;5062562;28;1239;-77
2023/05/25 03:45:02;;;;;;;;;;;;;;;8.46;89.74;102580.38;5064385;28;1952;-77
2023/05/25 03:47:27;;;;;;;;;;;;;;;8.49;89.68;102582.84;5042489;28;1527;-78
2023/05/25 03:49:52;;;;;;;;;;;;;;;8.51;89.56;102589.59;5064126;28;1228;-78
2023/05/25 03:52:17;;;;;;;;;;;;;;;8.54;89.28;102591.19;5037191;28;1248;-78
2023/05/25 03:54:42;;;;;;;;;;;;;;;8.56;89.03;102591.16;5042997;28;1267;-77
2023/05/25 03:57:08;;;;;;;;;;;;;;;8.57;88.96;102590.25;5062188;28;1329;-77
2023/05/25 03:59:33;;;;;;;;;;;;;;;8.57;89.15;102587.66;5055535;28;1574;-77
2023/05/25 04:01:58;;;;;;;;;;;;;;;8.57;89.16;102592.81;5064559;28;1204;-78
2023/05/25 04:04:23;;;;;;;;;;;;;;;8.59;89.14;102596.16;5044523;28;1961;-77
2023/05/25 04:06:50;;;;;;;;;;;;;;;8.61;89.86;102590.03;5066283;28;1171;-77
2023/05/25 04:09:15;;;;;;;;;;;;;;;8.62;89.61;102591.72;5064184;28;1189;-78
2023/05/25 04:11:41;;;;;;;;;;;;;;;8.65;89.51;102601.06;5063689;28;1509;-78
2023/05/25 04:14:06;;;;;;;;;;;;;;;8.63;90.23;102598.56;5045198;28;1211;-77
2023/05/25 04:16:31;;;;;;;;;;;;;;;8.60;90.32;102603.00;5068210;28;1104;-77
2023/05/25 04:18:56;;;;;;;;;;;;;;;8.62;90.54;102606.38;5064456;28;1340;-77
2023/05/25 04:21:21;;;;;;;;;;;;;;;8.63;90.40;102608.06;5066155;28;915;-77
2023/05/25 04:23:47;;;;;;;;;;;;;;;8.66;89.97;102602.72;5071129;28;1046;-77
2023/05/25 04:26:14;;;;;;;;;;;;;;;8.67;91.57;102604.44;5042709;28;1902;-77
2023/05/25 04:28:39;;;;;;;;;;;;;;;8.67;91.75;102609.63;5060661;28;1053;-77
2023/05/25 04:31:05;;;;;;;;;;;;;;;8.66;91.09;102613.09;5065754;28;1431;-77
2023/05/25 04:33:30;;;;;;;;;;;;;;;8.65;91.44;102617.41;5068045;28;1573;-77
2023/05/25 04:35:58;;;;;;;;;;;;;;;8.67;90.92;102614.78;5066467;28;1692;-77
2023/05/25 04:38:24;;;;;;;;;;;;;;;8.71;90.48;102611.13;5049071;28;1286;-77
2023/05/25 04:40:50;;;;;;;;;;;;;;;8.72;90.58;102615.44;5070007;28;1245;-77
2023/05/25 04:43:17;;;;;;;;;;;;;;;8.75;90.65;102617.84;5066175;28;1693;-77
2023/05/25 04:45:42;;;;;;;;;;;;;;;8.80;91.84;102615.91;5060880;28;1906;-77
2023/05/25 04:48:08;;;;;;;;;;;;;;;8.81;91.07;102617.56;5047239;28;1385;-77
2023/05/25 04:50:33;;;;;;;;;;;;;;;8.82;92.59;102618.41;5062238;28;1267;-77
2023/05/25 04:52:58;;;;;;;;;;;;;;;8.81;91.66;102622.75;5066818;28;1252;-77
2023/05/25 04:55:24;;;;;;;;;;;;;;;8.85;91.48;102624.31;5068408;28;1581;-77
2023/05/25 04:57:52;;;;;;;;;;;;;;;8.88;91.50;102626.72;5061473;28;1681;-77
2023/05/25 05:00:17;;;;;;;;;;;;;;;8.93;91.84;102621.34;5062010;28;1594;-76
2023/05/25 05:02:43;;;;;;;;;;;;;;;8.97;91.23;102626.31;5068581;28;1753;-76
2023/05/25 05:05:08;;;;;;;;;;;;;;;8.99;91.33;102631.41;5037195;28;1921;-75
2023/05/25 05:07:33;;;;;;;;;;;;;;;9.02;92.17;102639.91;5044949;28;1385;-76
2023/05/25 05:09:59;;;;;;;;;;;;;;;9.04;92.32;102630.28;5063730;28;1088;-77
2023/05/25 05:12:24;;;;;;;;;;;;;;;9.08;92.27;102640.53;5067174;28;1217;-76
2023/05/25 05:14:49;;;;;;;;;;;;;;;9.10;91.56;102638.69;5059643;28;1459;-76
2023/05/25 05:17:16;;;;;;;;;;;;;;;9.12;92.91;102642.03;5066669;28;1227;-76
2023/05/25 05:19:41;;;;;;;;;;;;;;;9.16;91.65;102649.59;5066735;28;1236;-76
2023/05/25 05:22:08;;;;;;;;;;;;;;;9.22;93.16;102648.47;5062830;28;1266;-77
2023/05/25 05:24:33;;;;;;;;;;;;;;;9.23;92.96;102651.00;5064328;28;1953;-76
2023/05/25 05:26:58;;;;;;;;;;;;;;;9.27;93.38;102646.50;5065565;28;1455;-76
2023/05/25 05:29:25;;;;;;;;;;;;;;;9.29;93.70;102655.06;5064814;28;1538;-77
2023/05/25 05:31:50;;;;;;;;;;;;;;;9.32;93.54;102668.69;5066988;28;1252;-77
2023/05/25 05:34:16;;;;;;;;;;;;;;;9.36;93.28;102661.63;5062586;28;1231;-77
2023/05/25 05:36:41;;;;;;;;;;;;;;;9.45;92.80;102661.19;5049457;28;1163;-77
2023/05/25 05:39:06;;;;;;;;;;;;;;;9.49;94.98;102667.06;5043990;28;1234;-77
2023/05/25 05:41:31;;;;;;;;;;;;;;;9.52;94.37;102667.75;5069400;28;1212;-77
2023/05/25 05:43:56;;;;;;;;;;;;;;;9.58;94.83;102677.84;5049393;28;1322;-77
2023/05/25 05:46:22;;;;;;;;;;;;;;;9.64;93.73;102678.44;5035508;28;1894;-77
2023/05/25 05:48:47;;;;;;;;;;;;;;;9.65;95.74;102677.53;5067646;28;1233;-77
2023/05/25 05:51:12;;;;;;;;;;;;;;;9.67;95.46;102678.28;5046939;28;1291;-77
2023/05/25 05:53:37;;;;;;;;;;;;;;;9.75;95.62;102681.38;5061112;28;1219;-77
2023/05/25 05:56:03;;;;;;;;;;;;;;;9.76;95.03;102681.28;5062057;28;1210;-76
2023/05/25 05:58:29;;;;;;;;;;;;;;;9.81;94.73;102678.47;5045796;28;1542;-76
2023/05/25 06:00:55;;;;;;;;;;;;;;;9.91;94.11;102684.03;5046856;28;1281;-77
2023/05/25 06:03:21;;;;;;;;;;;;;;;9.98;94.89;102686.25;5072112;28;1526;-77
2023/05/25 06:05:46;;;;;;;;;;;;;;;10.07;93.91;102684.97;5046452;28;1965;-77
2023/05/25 06:08:12;;;;;;;;;;;;;;;10.15;93.85;102680.25;5064652;28;1287;-76
2023/05/25 06:10:37;;;;;;;;;;;;;;;10.23;93.99;102685.03;5066890;28;1189;-77
2023/05/25 06:13:02;;;;;;;;;;;;;;;10.29;93.10;102689.94;5041737;28;1345;-77
2023/05/25 06:15:28;;;;;;;;;;;;;;;10.37;93.76;102693.81;5040291;28;1349;-78
2023/05/25 06:17:53;;;;;;;;;;;;;;;10.43;93.45;102697.84;5074625;28;1514;-77
2023/05/25 06:20:18;;;;;;;;;;;;;;;10.48;92.73;102695.88;5053946;28;1189;-77
2023/05/25 06:22:43;;;;;;;;;;;;;;;10.56;93.69;102693.72;5053280;28;1185;-77
2023/05/25 06:25:09;;;;;;;;;;;;;;;10.62;93.14;102702.94;5061491;28;1967;-78
2023/05/25 06:27:34;;;;;;;;;;;;;;;10.70;92.70;102705.13;5067398;28;1252;-77
2023/05/25 06:29:59;;;;;;;;;;;;;;;10.80;92.39;102711.53;5056916;28;1230;-77
2023/05/25 06:32:25;;;;;;;;;;;;;;;10.87;92.35;102712.88;5053520;28;1526;-77
2023/05/25 06:34:50;;;;;;;;;;;;;;;10.92;92.87;102713.47;5058866;28;1285;-76
2023/05/25 06:37:15;;;;;;;;;;;;;;;10.98;93.02;102715.75;5072887;28;1009;-78
2023/05/25 06:39:41;;;;;;;;;;;;;;;11.04;92.23;102719.78;5051635;28;1224;-77
2023/05/25 06:42:07;;;;;;;;;;;;;;;11.14;92.43;102721.81;5055649;28;1306;-76
2023/05/25 06:44:32;;;;;;;;;;;;;;;11.21;92.33;102721.47;5064773;28;1981;-72
2023/05/25 06:46:57;;;;;;;;;;;;;;;11.27;91.33;102731.53;5063081;28;1176;-77
2023/05/25 06:49:22;;;;;;;;;;;;;;;11.29;90.90;102735.72;5059270;28;1264;-77
2023/05/25 06:51:49;;;;;;;;;;;;;;;11.35;90.63;102729.34;5064371;28;1201;-77
2023/05/25 06:54:15;;;;;;;;;;;;;;;11.43;89.97;102727.19;5069139;28;1213;-77
2023/05/25 06:56:40;;;;;;;;;;;;;;;11.50;90.39;102733.72;5070513;28;1573;-76
2023/05/25 06:59:05;;;;;;;;;;;;;;;11.56;90.30;102730.78;5050166;28;1237;-77
2023/05/25 07:01:31;;;;;;;;;;;;;;;11.63;89.79;102734.69;5070048;28;1521;-77
2023/05/25 07:03:56;;;;;;;;;;;;;;;11.68;89.81;102732.69;5075457;28;1525;-77
2023/05/25 07:06:21;;;;;;;;;;;;;;;11.75;89.55;102732.34;5067399;28;1898;-77
2023/05/25 07:08:46;;;;;;;;;;;;;;;11.83;89.32;102730.19;5069186;28;1217;-77
2023/05/25 07:11:13;;;;;;;;;;;;;;;11.87;88.82;102731.69;5047420;28;1315;-77
2023/05/25 07:13:38;;;;;;;;;;;;;;;11.93;88.45;102741.75;5056165;28;1577;-78
2023/05/25 07:16:03;;;;;;;;;;;;;;;12.01;88.52;102736.94;5061908;28;1277;-78
2023/05/25 07:18:28;;;;;;;;;;;;;;;12.13;88.28;102733.66;5069875;28;1090;-78
2023/05/25 07:20:54;;;;;;;;;;;;;;;12.22;87.95;102730.53;5068136;28;1252;-77
2023/05/25 07:23:19;;;;;;;;;;;;;;;12.23;86.60;102727.00;5055092;28;1287;-77
2023/05/25 07:25:44;;;;;;;;;;;;;;;12.27;86.88;102729.41;5043639;28;1901;-77
2023/05/25 07:28:10;;;;;;;;;;;;;;;12.35;86.57;102737.59;5068195;28;1232;-77
2023/05/25 07:30:35;;;;;;;;;;;;;;;12.44;86.40;102726.63;5065477;28;1331;-77
2023/05/25 07:33:00;;;;;;;;;;;;;;;12.55;86.15;102734.66;5050442;28;1337;-77
2023/05/25 07:35:26;;;;;;;;;;;;;;;12.58;85.51;102744.91;5050923;28;1353;-78
2023/05/25 07:37:57;;;;;;;;;;;;;;;12.65;84.85;102746.19;5067725;28;1447;-77
2023/05/25 07:40:22;;;;;;;;;;;;;;;12.73;85.12;102749.19;5067872;28;1054;-78
2023/05/25 07:42:47;;;;;;;;;;;;;;;12.81;84.81;102751.34;5072184;28;1208;-79
2023/05/25 07:45:12;;;;;;;;;;;;;;;12.98;84.50;102742.50;5048541;28;1910;-77
2023/05/25 07:47:37;;;;;;;;;;;;;;;12.98;83.56;102742.50;5052004;28;1261;-78
2023/05/25 07:50:03;;;;;;;;;;;;;;;13.00;83.11;102740.63;5067421;28;1366;-78
2023/05/25 07:52:28;;;;;;;;;;;;;;;13.06;83.00;102740.25;5042714;28;1257;-77
2023/05/25 07:54:53;;;;;;;;;;;;;;;13.16;82.66;102746.56;5064340;28;1343;-78
2023/05/25 07:57:18;;;;;;;;;;;;;;;13.27;82.91;102744.16;5060890;28;1236;-80
2023/05/25 07:59:44;;;;;;;;;;;;;;;13.35;81.56;102742.84;5064750;28;1562;-76
2023/05/25 08:02:09;;;;;;;;;;;;;;;13.42;80.14;102747.59;5069403;28;1259;-78
2023/05/25 08:04:34;;;;;;;;;;;;;;;13.56;80.68;102754.53;5064336;28;1906;-77
2023/05/25 08:07:00;;;;;;;;;;;;;;;13.71;79.76;102758.78;5069353;28;1132;-78
2023/05/25 08:09:25;;;;;;;;;;;;;;;13.78;80.40;102767.88;5061203;28;1320;-78
2023/05/25 08:11:50;;;;;;;;;;;;;;;13.82;79.91;102777.19;5051577;28;1248;-77
2023/05/25 08:14:16;;;;;;;;;;;;;;;13.81;79.26;102779.88;5064895;28;1153;-78
2023/05/25 08:16:41;;;;;;;;;;;;;;;13.79;77.92;102787.81;5067117;28;1100;-78
2023/05/25 08:19:06;;;;;;;;;;;;;;;13.79;78.35;102777.38;5066217;28;1168;-77
2023/05/25 08:21:33;;;;;;;;;;;;;;;13.80;78.43;102773.81;5046740;28;1578;-78
2023/05/25 08:24:02;;;;;;;;;;;;;;;13.79;77.97;102782.59;5067058;28;1422;-77
2023/05/25 08:26:28;;;;;;;;;;;;;;;13.78;78.34;102786.13;5044750;28;1957;-77
2023/05/25 08:28:53;;;;;;;;;;;;;;;13.80;76.13;102783.41;5064973;28;1184;-78
2023/05/25 08:31:18;;;;;;;;;;;;;;;13.77;76.61;102789.69;5041282;28;1471;-78
2023/05/25 08:33:43;;;;;;;;;;;;;;;13.75;76.24;102790.69;5057434;28;1407;-77
2023/05/25 08:36:09;;;;;;;;;;;;;;;13.79;76.61;102793.00;5040688;28;1413;-78
2023/05/25 08:38:34;;;;;;;;;;;;;;;13.84;76.59;102797.13;5062640;28;1240;-77
2023/05/25 08:41:00;;;;;;;;;;;;;;;13.91;76.07;102791.38;5046453;28;1227;-77
2023/05/25 08:43:25;;;;;;;;;;;;;;;14.00;75.53;102795.19;5063581;28;1196;-78
2023/05/25 08:45:50;;;;;;;;;;;;;;;14.08;76.54;102798.97;5049544;28;1964;-77
2023/05/25 08:48:16;;;;;;;;;;;;;;;14.18;76.77;102798.38;5059661;28;1256;-77
2023/05/25 08:50:42;;;;;;;;;;;;;;;14.23;75.28;102791.91;5044662;28;1505;-77
2023/05/25 08:53:10;;;;;;;;;;;;;;;14.25;75.39;102803.09;5048620;28;1368;-77
2023/05/25 08:55:37;;;;;;;;;;;;;;;14.29;74.48;102801.94;5067943;28;1225;-77
2023/05/25 08:58:08;;;;;;;;;;;;;;;14.24;72.11;102793.59;5067467;28;1518;-78
2023/05/25 09:00:35;;;;;;;;;;;;;;;14.21;73.02;102804.22;5054923;28;1185;-77
2023/05/25 09:03:06;;;;;;;;;;;;;;;14.28;72.92;102800.28;5053636;28;1164;-78
2023/05/25 09:05:33;;;;;;;;;;;;;;;14.35;73.68;102801.53;5063342;28;1955;-78
2023/05/25 09:07:58;;;;;;;;;;;;;;;14.42;73.28;102801.13;5063661;28;1231;-78
2023/05/25 09:10:26;;;;;;;;;;;;;;;14.41;72.50;102794.25;5065826;28;1138;-78
2023/05/25 09:12:51;;;;;;;;;;;;;;;14.45;72.83;102795.69;5069619;28;1200;-78
2023/05/25 09:15:17;;;;;;;;;;;;;;;14.43;73.01;102790.59;5039758;28;1361;-79
2023/05/25 09:17:42;;;;;;;;;;;;;;;14.48;73.60;102803.38;5044780;28;1217;-78
2023/05/25 09:20:12;;;;;;;;;;;;;;;14.57;73.07;102808.00;5047876;28;1439;-78
2023/05/25 09:22:38;;;;;;;;;;;;;;;14.64;72.38;102800.56;5061265;28;1461;-78
2023/05/25 09:25:05;;;;;;;;;;;;;;;14.67;71.87;102806.41;5066929;28;1961;-78
2023/05/25 09:27:33;;;;;;;;;;;;;;;14.62;70.03;102808.50;5057225;28;1941;-79
2023/05/25 09:30:00;;;;;;;;;;;;;;;14.64;71.40;102801.41;5045477;28;1531;-78
2023/05/25 09:32:25;;;;;;;;;;;;;;;14.72;70.74;102806.94;5050943;28;1264;-78
2023/05/25 09:34:51;;;;;;;;;;;;;;;14.65;70.37;102803.06;5052758;28;1282;-78
2023/05/25 09:37:17;;;;;;;;;;;;;;;14.62;69.94;102803.28;5059376;28;1646;-78
2023/05/25 09:39:43;;;;;;;;;;;;;;;14.63;70.92;102804.97;5062725;28;1780;-78
2023/05/25 09:42:09;;;;;;;;;;;;;;;14.71;70.44;102805.28;5055887;28;1563;-78
2023/05/25 09:44:34;;;;;;;;;;;;;;;14.72;70.08;102793.88;5061056;28;1929;-79
2023/05/25 09:47:00;;;;;;;;;;;;;;;14.71;70.02;102794.00;5064705;28;1185;-79
2023/05/25 09:49:25;;;;;;;;;;;;;;;14.71;70.35;102797.44;5047289;28;1314;-78
2023/05/25 09:51:51;;;;;;;;;;;;;;;14.78;71.15;102792.63;5066768;28;1225;-78
2023/05/25 09:54:16;;;;;;;;;;;;;;;14.84;70.22;102798.28;5056933;28;1216;-78
2023/05/25 09:56:41;;;;;;;;;;;;;;;14.92;69.89;102802.16;5056424;28;1585;-78
2023/05/25 09:59:07;;;;;;;;;;;;;;;14.95;68.35;102799.31;5062929;28;1082;-78
2023/05/25 10:01:33;;;;;;;;;;;;;;;15.05;70.40;102795.13;5063367;28;1501;-79
2023/05/25 10:04:00;;;;;;;;;;;;;;;15.21;69.75;102793.13;5049108;28;1255;-78
2023/05/25 10:06:25;;;;;;;;;;;;;;;15.37;69.07;102793.72;5067014;28;1910;-78
2023/05/25 10:08:51;;;;;;;;;;;;;;;15.36;68.58;102799.03;5062831;28;1460;-78
2023/05/25 10:11:17;;;;;;;;;;;;;;;15.28;67.40;102791.75;5066997;28;1228;-78
2023/05/25 10:13:43;;;;;;;;;;;;;;;15.24;69.06;102795.50;5061133;28;1514;-77
2023/05/25 10:16:16;;;;;;;;;;;;;;;15.16;67.71;102800.47;5043236;28;1342;-79
2023/05/25 10:18:46;;;;;;;;;;;;;;;15.06;67.29;102799.41;5061920;28;1339;-78
2023/05/25 10:21:12;;;;;;;;;;;;;;;15.00;67.72;102797.22;5063026;28;1196;-79
2023/05/25 10:23:40;;;;;;;;;;;;;;;15.00;68.02;102797.22;5047020;28;1340;-79
2023/05/25 10:26:06;;;;;;;;;;;;;;;15.09;68.70;102796.59;5066672;28;1943;-79
2023/05/25 10:28:36;;;;;;;;;;;;;;;15.19;66.94;102797.63;5069057;28;1252;-79
2023/05/25 10:31:02;;;;;;;;;;;;;;;15.32;68.54;102793.22;5048878;28;1302;-79
2023/05/25 10:33:27;;;;;;;;;;;;;;;15.41;66.36;102797.78;5043137;28;1407;-78
2023/05/25 10:35:53;;;;;;;;;;;;;;;15.44;68.04;102790.69;5062269;28;1538;-78
2023/05/25 10:38:18;;;;;;;;;;;;;;;15.47;68.39;102790.44;5062875;28;1115;-79
2023/05/25 10:40:47;;;;;;;;;;;;;;;15.49;67.17;102793.81;5052222;28;1582;-79
2023/05/25 10:43:12;;;;;;;;;;;;;;;15.54;66.84;102791.69;5069473;28;1135;-78
2023/05/25 10:45:38;;;;;;;;;;;;;;;15.60;66.13;102793.88;5064545;28;1898;-79
2023/05/25 10:48:03;;;;;;;;;;;;;;;15.67;65.47;102795.13;5069190;28;1134;-80
2023/05/25 10:50:34;;;;;;;;;;;;;;;15.71;66.17;102791.34;5046942;28;1577;-79
2023/05/25 10:53:00;;;;;;;;;;;;;;;15.64;64.74;102783.09;5066208;28;1088;-78
2023/05/25 10:55:31;;;;;;;;;;;;;;;15.72;66.37;102785.19;5050263;28;1515;-78
2023/05/25 10:58:06;;;;;;;;;;;;;;;15.65;64.97;102791.78;5064454;23;1556;-79
2023/05/25 11:00:31;;;;;;;;;;;;;;;15.62;64.73;102792.84;5070672;28;1224;-79
2023/05/25 11:02:57;;;;;;;;;;;;;;;15.63;64.94;102793.69;5053163;28;1292;-79
2023/05/25 11:05:29;;;;;;;;;;;;;;;15.63;64.51;102789.28;5069280;28;1961;-79
2023/05/25 11:07:58;;;;;;;;;;;;;;;15.62;64.57;102794.59;5068680;28;1566;-79
2023/05/25 11:10:42;;;;;;;;;;;;;;;15.65;65.33;102791.78;5063249;28;1502;-78
2023/05/25 11:13:20;;;;;;;;;;;;;;;15.85;66.40;102775.47;5071153;28;1343;-80
2023/05/25 11:15:46;;;;;;;;;;;;;;;15.98;63.40;102779.81;5053126;28;1169;-78
2023/05/25 11:18:13;;;;;;;;;;;;;;;16.03;64.22;102782.94;5072667;28;1225;-79
2023/05/25 11:20:38;;;;;;;;;;;;;;;16.05;62.64;102781.03;5057544;28;1237;-78
2023/05/25 11:23:21;;;;;;;;;;;;;;;16.05;62.45;102781.03;5054290;28;1358;-79
2023/05/25 11:25:46;;;;;;;;;;;;;;;16.05;63.58;102781.03;5063242;28;1874;-78
2023/05/25 11:28:11;;;;;;;;;;;;;;;16.10;62.92;102778.91;5057947;28;1544;-78
2023/05/25 11:30:41;;;;;;;;;;;;;;;16.08;60.94;102775.59;5068542;28;1323;-78
2023/05/25 11:33:09;;;;;;;;;;;;;;;16.07;60.87;102779.16;5047173;28;1250;-78
2023/05/25 11:35:38;;;;;;;;;;;;;;;16.07;62.09;102768.69;5068996;28;1343;-78
2023/05/25 11:38:05;;;;;;;;;;;;;;;16.09;62.13;102761.53;5064508;28;1244;-79
2023/05/25 11:40:31;;;;;;;;;;;;;;;16.16;62.16;102762.75;5069669;28;1133;-78
2023/05/25 11:43:00;;;;;;;;;;;;;;;16.24;61.13;102770.88;5054224;28;1242;-77
2023/05/25 11:45:32;;;;;;;;;;;;;;;16.24;60.32;102755.16;5048250;28;1977;-78
2023/05/25 11:47:57;;;;;;;;;;;;;;;16.30;60.17;102765.19;5075516;28;1244;-78
2023/05/25 11:50:22;;;;;;;;;;;;;;;16.38;60.42;102754.13;5060733;28;1017;-78
2023/05/25 11:52:47;;;;;;;;;;;;;;;16.40;60.12;102754.81;5066484;28;1347;-78
2023/05/25 11:55:13;;;;;;;;;;;;;;;16.51;60.28;102749.59;5062377;28;1189;-77
2023/05/25 11:57:39;;;;;;;;;;;;;;;16.62;58.74;102748.78;5061426;28;1252;-77
2023/05/25 12:00:05;;;;;;;;;;;;;;;16.69;59.52;102745.59;5061548;28;1506;-77
2023/05/25 12:02:36;;;;;;;;;;;;;;;16.75;58.86;102749.56;5059184;28;1331;-78
2023/05/25 12:05:01;;;;;;;;;;;;;;;16.82;59.13;102740.28;5040193;28;1959;-77
2023/05/25 12:07:27;;;;;;;;;;;;;;;16.82;58.26;102750.75;5064425;28;1264;-77
2023/05/25 12:10:09;;;;;;;;;;;;;;;16.76;59.53;102746.00;5058987;28;1266;-77
2023/05/25 12:12:43;;;;;;;;;;;;;;;16.76;59.47;102739.91;5064828;28;1208;-77
2023/05/25 12:15:10;;;;;;;;;;;;;;;16.79;58.98;102744.91;5044556;28;1590;-77
2023/05/25 12:17:35;;;;;;;;;;;;;;;16.78;58.90;102738.84;5066384;28;1280;-77
2023/05/25 12:20:01;;;;;;;;;;;;;;;16.79;57.35;102739.66;5061824;28;1576;-77
2023/05/25 12:22:26;;;;;;;;;;;;;;;16.87;57.96;102740.75;5065534;28;1228;-77
2023/05/25 12:24:51;;;;;;;;;;;;;;;16.90;55.06;102737.88;5060101;28;1902;-77
2023/05/25 12:27:18;;;;;;;;;;;;;;;16.95;57.29;102727.88;5046994;28;1282;-77
2023/05/25 12:29:47;;;;;;;;;;;;;;;17.13;57.36;102730.00;5044305;28;1542;-77
2023/05/25 12:32:13;;;;;;;;;;;;;;;17.29;56.46;102730.44;5058123;28;1002;-78
2023/05/25 12:34:38;;;;;;;;;;;;;;;17.28;55.06;102734.03;5060310;28;1489;-77
2023/05/25 12:37:03;;;;;;;;;;;;;;;17.21;55.95;102732.84;5066579;28;1217;-77
2023/05/25 12:39:28;;;;;;;;;;;;;;;17.04;55.58;102728.13;5040075;28;1234;-77
2023/05/25 12:41:54;;;;;;;;;;;;;;;16.96;56.06;102732.16;5066900;28;1088;-77
2023/05/25 12:44:20;;;;;;;;;;;;;;;16.92;58.00;102736.00;5046055;28;1434;-77